Time;durP1;ratioP1;P1;durP2;ratioP2;P2;SDS_P1;SDS_P2;PMS_P1;PMS_P2;Temp;Humidity;BMP_temperature;BMP_pressure;BME280_temperature;BME280_humidity;BME280_pressure;Samples;Min_cycle;Max_cycle;Signal;HPM_P1;HPM_P2
2022/04/04 00:02:21;;;;;;;;;;;;;;;5.76;62.57;98663.84;5090677;28;982;-96
2022/04/04 00:05:01;;;;;;;;;;;;;;;5.75;62.38;98650.72;5076289;28;1303;-96
2022/04/04 00:10:36;;;;;;;;;;;;;;;5.75;62.42;98651.53;5094218;28;1249;-96
2022/04/04 00:13:13;;;;;;;;;;;;;;;5.75;62.12;98645.41;5097920;28;1404;-96
2022/04/04 00:15:41;;;;;;;;;;;;;;;5.74;62.30;98638.44;5095960;28;1181;-96
2022/04/04 00:18:25;;;;;;;;;;;;;;;5.76;62.42;98636.31;5098994;28;997;-96
2022/04/04 00:32:04;;;;;;;;;;;;;;;5.72;62.28;98595.91;5110676;28;1100;-96
2022/04/04 00:37:22;;;;;;;;;;;;;;;5.72;62.38;98581.75;5094658;28;1226;-96
2022/04/04 00:39:58;;;;;;;;;;;;;;;5.71;62.22;98572.94;5115192;28;1891;-96
2022/04/04 00:50:47;;;;;;;;;;;;;;;5.71;62.36;98546.22;5080413;28;1350;-96
2022/04/04 00:56:11;;;;;;;;;;;;;;;5.69;62.25;98534.97;5094915;28;1174;-96
2022/04/04 01:04:17;;;;;;;;;;;;;;;5.66;62.41;98501.53;5112405;28;1308;-96
2022/04/04 01:07:09;;;;;;;;;;;;;;;5.66;62.31;98504.19;5104648;28;999;-96
2022/04/04 01:09:41;;;;;;;;;;;;;;;5.67;62.34;98505.00;5115687;28;959;-96
2022/04/04 01:12:25;;;;;;;;;;;;;;;5.66;62.47;98492.69;5106097;28;1329;-96
2022/04/04 01:18:16;;;;;;;;;;;;;;;5.64;62.43;98471.56;5094831;28;1243;-96
2022/04/04 01:21:05;;;;;;;;;;;;;;;5.65;62.47;98464.38;5094625;28;1906;-96
2022/04/04 01:26:31;;;;;;;;;;;;;;;5.63;62.24;98448.56;5094190;28;1124;-96
2022/04/04 01:31:52;;;;;;;;;;;;;;;5.63;62.44;98439.75;5092983;28;975;-96
2022/04/04 01:39:50;;;;;;;;;;;;;;;5.61;62.47;98421.28;5093167;28;1975;-96
2022/04/04 01:42:27;;;;;;;;;;;;;;;5.63;62.28;98413.06;5074749;28;1435;-96
2022/04/04 01:45:07;;;;;;;;;;;;;;;5.60;62.42;98411.66;5093814;28;1190;-96
2022/04/04 01:47:40;;;;;;;;;;;;;;;5.59;62.53;98404.72;5094693;28;896;-96
2022/04/04 01:50:23;;;;;;;;;;;;;;;5.60;62.35;98400.19;5073580;28;1136;-96
2022/04/04 01:58:23;;;;;;;;;;;;;;;5.58;62.51;98378.25;5097495;28;957;-96
2022/04/04 02:03:41;;;;;;;;;;;;;;;5.57;62.45;98366.75;5079487;28;1650;-96
2022/04/04 02:06:20;;;;;;;;;;;;;;;5.57;62.21;98361.41;5093615;28;942;-96
2022/04/04 02:09:05;;;;;;;;;;;;;;;5.56;62.37;98354.47;5094245;28;1099;-96
2022/04/04 02:50:06;;;;;;;;;;;;;;;5.51;62.15;98238.75;5056967;28;951;-96
2022/04/04 02:53:01;;;;;;;;;;;;;;;5.51;62.26;98228.06;5057317;28;1228;-96
2022/04/04 03:08:38;;;;;;;;;;;;;;;5.49;62.11;98192.78;5057540;28;695;-96
2022/04/04 03:26:31;;;;;;;;;;;;;;;5.46;62.06;98141.50;5054238;28;1662;-96
2022/04/04 03:32:55;;;;;;;;;;;;;;;5.45;61.92;98125.72;5057040;28;857;-96
2022/04/04 04:10:16;;;;;;;;;;;;;;;5.41;61.95;98039.16;5099331;28;686;-96
2022/04/04 17:55:03;;;;;;;;;;;;;;;4.96;61.95;97658.72;5072284;28;679;-96
2022/04/04 19:50:08;;;;;;;;;;;;;;;4.63;62.16;97825.03;4999256;28;1170;-96
2022/04/04 19:59:22;;;;;;;;;;;;;;;4.61;62.42;97840.47;5018353;28;707;-96
2022/04/04 20:02:15;;;;;;;;;;;;;;;4.59;62.16;97832.72;5024688;28;3200;-96
2022/04/04 20:05:00;;;;;;;;;;;;;;;4.58;62.16;97849.75;5015912;28;1185;-96
2022/04/04 20:07:28;;;;;;;;;;;;;;;4.59;62.21;97853.22;5015757;28;1202;-96
2022/04/04 20:10:05;;;;;;;;;;;;;;;4.57;62.03;97842.00;5032609;28;970;-96
2022/04/04 20:12:35;;;;;;;;;;;;;;;4.57;62.08;97850.00;5013627;28;1439;-96
2022/04/04 20:15:08;;;;;;;;;;;;;;;4.57;62.22;97850.00;5016053;28;1493;-96
2022/04/04 20:17:35;;;;;;;;;;;;;;;4.56;62.20;97851.88;5015126;28;1387;-96
2022/04/04 20:20:04;;;;;;;;;;;;;;;4.54;62.32;97857.44;5032382;28;1977;-96
2022/04/04 20:22:39;;;;;;;;;;;;;;;4.54;62.12;97859.31;5015240;28;1373;-96
2022/04/04 20:25:08;;;;;;;;;;;;;;;4.53;62.16;97847.03;5029298;28;1558;-96
2022/04/04 20:27:40;;;;;;;;;;;;;;;4.52;62.19;97850.72;5030362;28;1362;-96
2022/04/04 20:30:11;;;;;;;;;;;;;;;4.51;62.17;97855.28;5032664;28;913;-96
2022/04/04 20:32:43;;;;;;;;;;;;;;;4.50;62.07;97861.66;5030358;28;983;-96
2022/04/04 20:35:14;;;;;;;;;;;;;;;4.51;62.13;97870.47;5049005;28;1204;-96
2022/04/04 20:37:42;;;;;;;;;;;;;;;4.48;61.88;97862.94;5051758;28;1178;-96
2022/04/04 20:40:09;;;;;;;;;;;;;;;4.46;62.00;97865.03;5051502;28;1996;-96
2022/04/04 20:42:38;;;;;;;;;;;;;;;4.46;61.86;97868.50;5051646;28;1160;-96
2022/04/04 20:45:06;;;;;;;;;;;;;;;4.44;61.95;97875.13;5050350;28;1239;-96
2022/04/04 20:47:35;;;;;;;;;;;;;;;4.45;62.01;97880.25;5049304;28;1198;-96
2022/04/04 20:50:04;;;;;;;;;;;;;;;4.45;62.13;97882.09;5048950;28;1274;-96
2022/04/04 20:52:32;;;;;;;;;;;;;;;4.44;61.95;97886.63;5048143;28;1145;-96
2022/04/04 20:54:58;;;;;;;;;;;;;;;4.43;62.00;97890.31;5048799;28;1220;-96
2022/04/04 20:57:25;;;;;;;;;;;;;;;4.42;61.94;97893.25;5048720;28;1312;-96
2022/04/04 20:59:53;;;;;;;;;;;;;;;4.40;61.75;97896.16;5048055;28;1164;-96
2022/04/04 21:02:22;;;;;;;;;;;;;;;4.40;61.84;97900.69;5050710;28;1871;-96
2022/04/04 21:04:50;;;;;;;;;;;;;;;4.39;61.95;97893.75;5048717;28;1398;-96
2022/04/04 21:07:20;;;;;;;;;;;;;;;4.38;61.88;97897.44;5050041;28;850;-96
2022/04/04 21:09:48;;;;;;;;;;;;;;;4.37;61.93;97904.63;5050386;28;1187;-96
2022/04/04 21:12:16;;;;;;;;;;;;;;;4.35;61.77;97909.38;5048839;28;1461;-96
2022/04/04 21:14:44;;;;;;;;;;;;;;;4.36;61.88;97911.03;5050692;28;1354;-96
2022/04/04 21:17:11;;;;;;;;;;;;;;;4.35;61.81;97906.72;5053462;28;1386;-96
2022/04/04 21:19:42;;;;;;;;;;;;;;;4.35;61.92;97913.91;5055363;28;1760;-96
2022/04/04 21:22:09;;;;;;;;;;;;;;;4.33;61.91;97908.84;5050772;28;1971;-96
2022/04/04 21:24:38;;;;;;;;;;;;;;;4.33;61.90;97919.50;5050497;28;1169;-96
2022/04/04 21:27:10;;;;;;;;;;;;;;;4.33;61.67;97917.63;5051897;28;888;-96
2022/04/04 21:29:44;;;;;;;;;;;;;;;4.32;61.63;97924.03;5051745;28;925;-96
2022/04/04 21:32:13;;;;;;;;;;;;;;;4.33;61.74;97922.16;5051097;28;861;-96
2022/04/04 21:34:41;;;;;;;;;;;;;;;4.33;61.67;97925.63;5048532;28;1716;-96
2022/04/04 21:37:08;;;;;;;;;;;;;;;4.32;61.92;97936.53;5047602;28;1288;-96
2022/04/04 21:39:38;;;;;;;;;;;;;;;4.33;61.79;97930.16;5048117;28;1163;-96
2022/04/04 21:42:05;;;;;;;;;;;;;;;4.32;61.88;97937.34;5047502;28;1910;-96
2022/04/04 21:44:32;;;;;;;;;;;;;;;4.30;61.84;97942.13;5048495;28;818;-96
2022/04/04 21:46:59;;;;;;;;;;;;;;;4.33;61.85;97948.81;5049296;28;1354;-96
2022/04/04 21:49:26;;;;;;;;;;;;;;;4.33;61.82;97946.94;5049463;28;1270;-96
2022/04/04 21:51:54;;;;;;;;;;;;;;;4.32;61.75;97950.69;5048317;28;1192;-96
2022/04/04 21:54:23;;;;;;;;;;;;;;;4.32;61.85;97953.34;5049114;28;1612;-96
2022/04/04 21:56:52;;;;;;;;;;;;;;;4.33;61.69;97959.47;5047499;28;1850;-96
2022/04/04 21:59:18;;;;;;;;;;;;;;;4.32;61.59;97960.50;5045114;28;1469;-96
2022/04/04 22:01:45;;;;;;;;;;;;;;;4.28;61.61;97959.38;5047359;28;2354;-96
2022/04/04 22:04:12;;;;;;;;;;;;;;;4.33;61.77;97962.13;5055570;28;1958;-96
2022/04/04 22:06:39;;;;;;;;;;;;;;;4.32;61.54;97961.34;5048934;28;998;-96
2022/04/04 22:09:06;;;;;;;;;;;;;;;4.33;61.54;97965.59;5049380;28;1546;-97
2022/04/04 22:11:33;;;;;;;;;;;;;;;4.33;61.47;97968.28;5046879;28;1380;-96
2022/04/04 22:14:03;;;;;;;;;;;;;;;4.35;61.57;97968.00;5051305;28;1204;-96
2022/04/04 22:16:34;;;;;;;;;;;;;;;4.36;61.50;97964.31;5052425;28;1027;-96
2022/04/04 22:19:01;;;;;;;;;;;;;;;4.36;61.42;97966.19;5051772;28;1296;-96
2022/04/04 22:21:28;;;;;;;;;;;;;;;4.36;61.25;97971.50;5051081;28;1971;-96
2022/04/04 22:23:56;;;;;;;;;;;;;;;4.35;61.10;97969.88;5051206;28;1489;-96
2022/04/04 22:26:24;;;;;;;;;;;;;;;4.35;61.12;97968.00;5050375;28;973;-96
2022/04/04 22:28:51;;;;;;;;;;;;;;;4.33;61.10;97968.28;5051416;28;1402;-96
2022/04/04 22:31:20;;;;;;;;;;;;;;;4.35;61.10;97972.53;5050242;28;1290;-96
2022/04/04 22:33:47;;;;;;;;;;;;;;;4.34;61.11;97974.41;5050445;28;1361;-96
2022/04/04 22:36:15;;;;;;;;;;;;;;;4.34;60.97;97982.41;5050472;28;1402;-96
2022/04/04 22:38:42;;;;;;;;;;;;;;;4.36;60.99;97985.63;5050264;28;1401;-96
2022/04/04 22:41:10;;;;;;;;;;;;;;;4.37;61.04;97983.78;5049426;28;1955;-96
2022/04/04 22:43:39;;;;;;;;;;;;;;;4.35;61.09;97992.00;5049902;28;1467;-96
2022/04/04 22:46:07;;;;;;;;;;;;;;;4.36;60.87;97996.31;5049423;28;1657;-96
2022/04/04 22:48:33;;;;;;;;;;;;;;;4.37;60.92;97997.91;5050527;28;1649;-96
2022/04/04 22:51:01;;;;;;;;;;;;;;;4.38;61.05;97999.50;5049546;28;1782;-96
2022/04/04 22:53:28;;;;;;;;;;;;;;;4.36;60.95;98008.81;5048190;28;1327;-96
2022/04/04 22:55:55;;;;;;;;;;;;;;;4.36;60.67;98012.28;5048634;28;1469;-96
2022/04/04 22:58:25;;;;;;;;;;;;;;;4.38;60.79;98018.16;5051206;28;984;-96
2022/04/04 23:00:52;;;;;;;;;;;;;;;4.35;61.02;98021.31;5049266;28;1961;-96
2022/04/04 23:03:19;;;;;;;;;;;;;;;4.35;60.96;98013.31;5049018;28;1866;-96
2022/04/04 23:05:46;;;;;;;;;;;;;;;4.35;60.72;98021.31;5048704;28;1329;-96
2022/04/04 23:08:13;;;;;;;;;;;;;;;4.33;61.08;98013.56;5049153;28;1804;-96
2022/04/04 23:10:40;;;;;;;;;;;;;;;4.34;60.87;98025.03;5049682;28;1516;-96
2022/04/04 23:13:08;;;;;;;;;;;;;;;4.35;60.83;98021.31;5051272;28;1102;-96
2022/04/04 23:15:34;;;;;;;;;;;;;;;4.33;61.03;98023.44;5050722;28;1638;-96
2022/04/04 23:18:01;;;;;;;;;;;;;;;4.33;60.63;98031.44;5049276;28;1309;-96
2022/04/04 23:20:29;;;;;;;;;;;;;;;4.33;61.06;98026.09;5048607;28;1231;-96
2022/04/04 23:22:56;;;;;;;;;;;;;;;4.31;60.78;98031.66;5048712;28;1883;-96
2022/04/04 23:25:23;;;;;;;;;;;;;;;4.29;60.93;98032.94;5049049;28;1413;-96
2022/04/04 23:27:52;;;;;;;;;;;;;;;4.29;60.99;98039.09;5049700;28;1259;-96
2022/04/04 23:30:19;;;;;;;;;;;;;;;4.27;61.02;98038.53;5049534;28;1173;-96
2022/04/04 23:32:46;;;;;;;;;;;;;;;4.28;60.97;98032.13;5048550;28;1419;-96
2022/04/04 23:35:13;;;;;;;;;;;;;;;4.28;60.94;98039.31;5047854;28;1303;-96
2022/04/04 23:37:39;;;;;;;;;;;;;;;4.27;60.85;98043.84;5049826;28;846;-96
2022/04/04 23:40:06;;;;;;;;;;;;;;;4.28;60.84;98040.13;5047747;28;1346;-96
2022/04/04 23:42:33;;;;;;;;;;;;;;;4.28;61.07;98045.47;5047316;28;1910;-96
2022/04/04 23:45:00;;;;;;;;;;;;;;;4.26;61.05;98047.53;5062576;28;1549;-96
2022/04/04 23:47:27;;;;;;;;;;;;;;;4.25;61.02;98051.25;5068925;28;1361;-96
2022/04/04 23:49:54;;;;;;;;;;;;;;;4.27;60.94;98053.72;5058000;28;1572;-96
2022/04/04 23:52:22;;;;;;;;;;;;;;;4.26;61.06;98054.72;5046566;28;1268;-96
2022/04/04 23:54:49;;;;;;;;;;;;;;;4.24;60.92;98056.84;5027551;28;1209;-96
2022/04/04 23:57:15;;;;;;;;;;;;;;;4.24;61.03;98062.19;5028270;28;1304;-96
2022/04/04 23:59:45;;;;;;;;;;;;;;;4.24;61.03;98062.19;5028297;28;1466;-96
